CheckWX is a tool to help pilots better visualize weather data.  It is not intended as a substitute for an official pre-flight weather briefing.

23:39:09 UTC

KIAD TAF
Washington Dulles International Airport
Washington, Virginia, USA
KIAD 242058Z 2421/2524 16006KT P6SM BKN100 OVC200 FM250700 15004KT 3SM -RA BR BKN008 OVC015 FM251000 11005KT 1SM -RADZ BR BKN003 OVC008 FM251500 05005KT 2SM -DZ BR BKN005 OVC015 FM251900 05005KT 5SM -DZ BR BKN008 OVC015

Feb-24@
21:00 UTC

Feb-24 @ 21:00 UTC

Feb-25@
07:00 UTC

Feb-25 @ 07:00 UTC

KIAD 242058Z 2421/2524 16006KT P6SM BKN100 OVC200
Wind
  • 160° at 6 KTS
Cloud Levels
  • Broken at 10,000' AGL
  • Overcast at 20,000' AGL

Feb-25@
07:00 UTC

Feb-25 @ 07:00 UTC

Feb-25@
10:00 UTC

Feb-25 @ 10:00 UTC

FM250700 15004KT 3SM -RA BR BKN008 OVC015

From

From Standard forecast or significant change

Wind
  • 150° at 4 KTS
Conditions
Light Rain, Mist
Cloud Levels
  • Broken at 800' AGL
  • Overcast at 1,500' AGL

Feb-25@
10:00 UTC

Feb-25 @ 10:00 UTC

Feb-25@
15:00 UTC

Feb-25 @ 15:00 UTC

FM251000 11005KT 1SM -RADZ BR BKN003 OVC008

From

From Standard forecast or significant change

Wind
  • 110° at 5 KTS
Conditions
Light Rain, Light Drizzle, Mist
Cloud Levels
  • Broken at 300' AGL
  • Overcast at 800' AGL

Feb-25@
15:00 UTC

Feb-25 @ 15:00 UTC

Feb-25@
19:00 UTC

Feb-25 @ 19:00 UTC

FM251500 05005KT 2SM -DZ BR BKN005 OVC015

From

From Standard forecast or significant change

Wind
  • 050° at 5 KTS
Conditions
Light Drizzle, Mist
Cloud Levels
  • Broken at 500' AGL
  • Overcast at 1,500' AGL

Feb-25@
19:00 UTC

Feb-25 @ 19:00 UTC

Feb-26@
00:00 UTC

Feb-26 @ 00:00 UTC

FM251900 05005KT 5SM -DZ BR BKN008 OVC015

From

From Standard forecast or significant change

Wind
  • 050° at 5 KTS
Conditions
Light Drizzle, Mist
Cloud Levels
  • Broken at 800' AGL
  • Overcast at 1,500' AGL